Briefing drone pour Jargeau

Rechercher une autre localisation

Conditions de vol :


Nous sommes le : Jeudi 04 mars 2021
Il est 02:31 UTC (03:31 LT)

Lever de soleil : 05:59 UTC (06:59 LT)
Coucher de soleil : 18:07 UTC (19:07 LT)

Météo

L'essentiel des conditions de vol

VIGILANCE MÉTÉO FRANCE - Loiret (45)
Pas de vigilances particulieres
CARTE TEMSI
CARTES DES FRONTS
METAR de LFOJ
LFOJ 040200Z AUTO 21004KT 9999 FEW043 08/06 Q1023

Date d'émission: 04/03/2021
Heure d'émission: 02:00 UTC
Vent: 210° pour 4 KT (7 km/h)
Visibilité horizontale: > 10 km
Plafond :
- Peu de nuages à 4300ft (1311m)
Température: 8 °C
Point de rosée: 6 °C
Humidité: 87%
Pression (QNH): 1023 hPa
TAF de LFOJ
LFOJ 032226Z 0322/0421 CNL

Conditions prévues :

Heure d'émission : Bulletin éffectué le 03 à 22:00 UTC
Prévision : Valide du 03 a 22:00 UTC au 04 a 21:00 UTC
Nuages : à 0ft (0 m)
WEBCAM POUR JARGEAU

Réglementation

Voler en sécurité

CARTES AERONAUTIQUE 1/500.000
CARTES VAC (LFOJ)
SUP AIP




Chargement des AIP...
NOTAM (JARGEAU + Terrain à proximité / FIR )




Chargement des NOTAMS...
CONTACT PREFECTURE 45


Avertissement : Les données mises à disposition sont indicatives. Oxygène Drone ne pourra être tenu responsable de dégâts causés aux biens et aux personnes.